sensor_id;sensor_type;location;lat;lon;timestamp;pressure;altitude;pressure_sealevel;temperature;humidity
58761;BME280;44529;47.464;19.014;2022-11-09T00:02:12;100783.16;;;9.36;100.00
58761;BME280;44529;47.464;19.014;2022-11-09T00:05:14;100786.94;;;9.35;100.00
58761;BME280;44529;47.464;19.014;2022-11-09T00:08:16;100784.25;;;9.35;100.00
58761;BME280;44529;47.464;19.014;2022-11-09T00:11:19;100777.81;;;9.31;100.00
58761;BME280;44529;47.464;19.014;2022-11-09T00:14:21;100779.94;;;9.34;100.00
58761;BME280;44529;47.464;19.014;2022-11-09T00:17:24;100782.84;;;9.38;100.00
58761;BME280;44529;47.464;19.014;2022-11-09T00:20:26;100771.63;;;9.31;100.00
58761;BME280;44529;47.464;19.014;2022-11-09T00:23:28;100774.59;;;9.29;100.00
58761;BME280;44529;47.464;19.014;2022-11-09T00:26:31;100774.00;;;9.32;100.00
58761;BME280;44529;47.464;19.014;2022-11-09T00:29:33;100774.00;;;9.32;100.00
58761;BME280;44529;47.464;19.014;2022-11-09T00:32:36;100774.00;;;9.32;100.00
58761;BME280;44529;47.464;19.014;2022-11-09T00:35:38;100781.16;;;9.23;100.00
58761;BME280;44529;47.464;19.014;2022-11-09T00:38:40;100778.97;;;9.25;100.00
58761;BME280;44529;47.464;19.014;2022-11-09T00:41:43;100773.22;;;9.32;100.00
58761;BME280;44529;47.464;19.014;2022-11-09T00:44:45;100781.59;;;9.30;100.00
58761;BME280;44529;47.464;19.014;2022-11-09T00:47:48;100768.69;;;9.27;100.00
58761;BME280;44529;47.464;19.014;2022-11-09T00:50:51;100768.75;;;9.22;100.00
58761;BME280;44529;47.464;19.014;2022-11-09T00:53:54;100764.00;;;9.14;100.00
58761;BME280;44529;47.464;19.014;2022-11-09T00:56:58;100759.75;;;9.08;100.00
58761;BME280;44529;47.464;19.014;2022-11-09T01:00:01;100765.09;;;9.13;100.00
58761;BME280;44529;47.464;19.014;2022-11-09T01:03:04;100764.28;;;9.12;100.00
58761;BME280;44529;47.464;19.014;2022-11-09T01:06:08;100764.00;;;9.14;100.00
58761;BME280;44529;47.464;19.014;2022-11-09T01:09:11;100762.22;;;9.04;100.00
58761;BME280;44529;47.464;19.014;2022-11-09T01:12:14;100770.09;;;9.01;100.00
58761;BME280;44529;47.464;19.014;2022-11-09T01:15:16;100765.72;;;9.05;100.00
58761;BME280;44529;47.464;19.014;2022-11-09T01:18:19;100763.03;;;9.05;100.00
58761;BME280;44529;47.464;19.014;2022-11-09T01:21:22;100759.47;;;9.09;100.00
58761;BME280;44529;47.464;19.014;2022-11-09T01:24:24;100763.84;;;9.05;100.00
58761;BME280;44529;47.464;19.014;2022-11-09T01:27:28;100758.22;;;9.02;100.00
58761;BME280;44529;47.464;19.014;2022-11-09T01:30:36;100757.94;;;9.03;100.00
58761;BME280;44529;47.464;19.014;2022-11-09T01:33:39;100755.53;;;9.02;100.00
58761;BME280;44529;47.464;19.014;2022-11-09T01:36:42;100747.94;;;9.04;100.00
58761;BME280;44529;47.464;19.014;2022-11-09T01:39:44;100748.81;;;8.99;100.00
58761;BME280;44529;47.464;19.014;2022-11-09T01:42:46;100747.25;;;8.93;100.00
58761;BME280;44529;47.464;19.014;2022-11-09T01:45:58;100740.56;;;8.90;100.00
58761;BME280;44529;47.464;19.014;2022-11-09T01:49:05;100741.06;;;8.92;100.00
58761;BME280;44529;47.464;19.014;2022-11-09T01:52:14;100735.09;;;8.95;100.00
58761;BME280;44529;47.464;19.014;2022-11-09T01:55:20;100735.66;;;8.92;100.00
58761;BME280;44529;47.464;19.014;2022-11-09T01:58:34;100734.34;;;8.90;100.00
58761;BME280;44529;47.464;19.014;2022-11-09T02:01:40;100733.31;;;8.86;100.00
58761;BME280;44529;47.464;19.014;2022-11-09T02:04:58;100739.06;;;8.79;100.00
58761;BME280;44529;47.464;19.014;2022-11-09T02:08:04;100736.66;;;8.78;100.00
58761;BME280;44529;47.464;19.014;2022-11-09T02:11:11;100733.66;;;8.79;100.00
58761;BME280;44529;47.464;19.014;2022-11-09T02:14:14;100729.66;;;8.77;100.00
58761;BME280;44529;47.464;19.014;2022-11-09T02:17:18;100724.72;;;8.84;100.00
58761;BME280;44529;47.464;19.014;2022-11-09T02:20:23;100722.53;;;8.86;100.00
58761;BME280;44529;47.464;19.014;2022-11-09T02:23:27;100721.69;;;8.90;100.00
58761;BME280;44529;47.464;19.014;2022-11-09T02:26:40;100720.19;;;8.79;100.00
58761;BME280;44529;47.464;19.014;2022-11-09T02:29:46;100722.09;;;8.79;100.00
58761;BME280;44529;47.464;19.014;2022-11-09T02:32:49;100724.53;;;8.75;100.00
58761;BME280;44529;47.464;19.014;2022-11-09T02:35:51;100722.97;;;8.69;100.00
58761;BME280;44529;47.464;19.014;2022-11-09T02:38:55;100715.44;;;8.71;100.00
58761;BME280;44529;47.464;19.014;2022-11-09T02:42:01;100709.50;;;8.69;100.00
58761;BME280;44529;47.464;19.014;2022-11-09T02:45:10;100712.53;;;8.62;100.00
58761;BME280;44529;47.464;19.014;2022-11-09T02:48:13;100714.72;;;8.60;100.00
58761;BME280;44529;47.464;19.014;2022-11-09T02:51:15;100722.53;;;8.62;100.00
58761;BME280;44529;47.464;19.014;2022-11-09T02:54:18;100713.34;;;8.63;100.00
58761;BME280;44529;47.464;19.014;2022-11-09T02:57:22;100718.06;;;8.52;100.00
58761;BME280;44529;47.464;19.014;2022-11-09T03:00:24;100714.78;;;8.55;100.00
58761;BME280;44529;47.464;19.014;2022-11-09T03:03:28;100707.03;;;8.49;100.00
58761;BME280;44529;47.464;19.014;2022-11-09T03:06:30;100711.56;;;8.53;100.00
58761;BME280;44529;47.464;19.014;2022-11-09T03:09:36;100714.53;;;8.57;100.00
58761;BME280;44529;47.464;19.014;2022-11-09T03:12:38;100713.00;;;8.46;100.00
58761;BME280;44529;47.464;19.014;2022-11-09T03:15:41;100719.22;;;8.46;100.00
58761;BME280;44529;47.464;19.014;2022-11-09T03:18:43;100715.75;;;8.40;100.00
58761;BME280;44529;47.464;19.014;2022-11-09T03:21:45;100711.91;;;8.47;100.00
58761;BME280;44529;47.464;19.014;2022-11-09T03:24:48;100718.28;;;8.56;100.00
58761;BME280;44529;47.464;19.014;2022-11-09T03:27:56;100723.41;;;8.57;100.00
58761;BME280;44529;47.464;19.014;2022-11-09T03:30:59;100724.22;;;8.58;100.00
58761;BME280;44529;47.464;19.014;2022-11-09T03:34:01;100728.25;;;8.55;100.00
58761;BME280;44529;47.464;19.014;2022-11-09T03:37:04;100721.44;;;8.63;100.00
58761;BME280;44529;47.464;19.014;2022-11-09T03:40:06;100727.38;;;8.65;100.00
58761;BME280;44529;47.464;19.014;2022-11-09T03:43:09;100732.84;;;8.55;100.00
58761;BME280;44529;47.464;19.014;2022-11-09T03:46:12;100724.34;;;8.43;100.00
58761;BME280;44529;47.464;19.014;2022-11-09T03:49:14;100729.22;;;8.40;100.00
58761;BME280;44529;47.464;19.014;2022-11-09T03:52:16;100730.31;;;8.39;100.00
58761;BME280;44529;47.464;19.014;2022-11-09T03:55:19;100721.09;;;8.46;100.00
58761;BME280;44529;47.464;19.014;2022-11-09T03:58:21;100713.81;;;8.46;100.00
58761;BME280;44529;47.464;19.014;2022-11-09T04:01:23;100718.69;;;8.44;100.00
58761;BME280;44529;47.464;19.014;2022-11-09T04:04:26;100715.47;;;8.42;100.00
58761;BME280;44529;47.464;19.014;2022-11-09T04:07:28;100717.81;;;8.49;100.00
58761;BME280;44529;47.464;19.014;2022-11-09T04:10:30;100722.94;;;8.50;100.00
58761;BME280;44529;47.464;19.014;2022-11-09T04:13:33;100716.00;;;8.44;100.00
58761;BME280;44529;47.464;19.014;2022-11-09T04:16:35;100712.25;;;8.40;100.00
58761;BME280;44529;47.464;19.014;2022-11-09T04:19:37;100710.88;;;8.43;100.00
58761;BME280;44529;47.464;19.014;2022-11-09T04:22:39;100708.75;;;8.39;100.00
58761;BME280;44529;47.464;19.014;2022-11-09T04:25:42;100708.19;;;8.43;100.00
58761;BME280;44529;47.464;19.014;2022-11-09T04:28:52;100708.72;;;8.45;100.00
58761;BME280;44529;47.464;19.014;2022-11-09T04:31:54;100708.13;;;8.48;100.00
58761;BME280;44529;47.464;19.014;2022-11-09T04:34:56;100703.03;;;8.46;100.00
58761;BME280;44529;47.464;19.014;2022-11-09T04:38:04;100701.47;;;8.40;100.00
58761;BME280;44529;47.464;19.014;2022-11-09T04:41:06;100701.47;;;8.40;100.00
58761;BME280;44529;47.464;19.014;2022-11-09T04:44:09;100705.22;;;8.44;100.00
58761;BME280;44529;47.464;19.014;2022-11-09T04:47:11;100700.69;;;8.39;100.00
58761;BME280;44529;47.464;19.014;2022-11-09T04:50:13;100704.72;;;8.37;100.00
58761;BME280;44529;47.464;19.014;2022-11-09T04:53:16;100702.53;;;8.44;100.00
58761;BME280;44529;47.464;19.014;2022-11-09T04:56:18;100712.56;;;8.38;100.00
58761;BME280;44529;47.464;19.014;2022-11-09T04:59:20;100710.38;;;8.40;100.00
58761;BME280;44529;47.464;19.014;2022-11-09T05:02:23;100713.81;;;8.46;100.00
58761;BME280;44529;47.464;19.014;2022-11-09T05:05:26;100710.06;;;8.42;100.00
58761;BME280;44529;47.464;19.014;2022-11-09T05:08:28;100710.44;;;8.30;100.00
58761;BME280;44529;47.464;19.014;2022-11-09T05:11:31;100708.31;;;8.27;100.00
58761;BME280;44529;47.464;19.014;2022-11-09T05:14:34;100711.81;;;8.28;100.00
58761;BME280;44529;47.464;19.014;2022-11-09T05:17:36;100698.59;;;8.31;100.00
58761;BME280;44529;47.464;19.014;2022-11-09T05:20:38;100706.38;;;8.33;100.00
58761;BME280;44529;47.464;19.014;2022-11-09T05:23:41;100707.72;;;8.30;100.00
58761;BME280;44529;47.464;19.014;2022-11-09T05:27:02;100707.50;;;8.27;100.00
58761;BME280;44529;47.464;19.014;2022-11-09T05:30:06;100701.84;;;8.28;100.00
58761;BME280;44529;47.464;19.014;2022-11-09T05:33:08;100707.22;;;8.28;100.00
58761;BME280;44529;47.464;19.014;2022-11-09T05:36:11;100707.72;;;8.30;100.00
58761;BME280;44529;47.464;19.014;2022-11-09T05:39:13;100710.31;;;8.46;100.00
58761;BME280;44529;47.464;19.014;2022-11-09T05:42:15;100705.56;;;8.37;100.00
58761;BME280;44529;47.464;19.014;2022-11-09T05:45:18;100699.59;;;8.40;100.00
58761;BME280;44529;47.464;19.014;2022-11-09T05:48:41;100709.28;;;8.41;100.00
58761;BME280;44529;47.464;19.014;2022-11-09T05:51:43;100715.72;;;8.46;100.00
58761;BME280;44529;47.464;19.014;2022-11-09T05:54:46;100718.50;;;8.35;100.00
58761;BME280;44529;47.464;19.014;2022-11-09T05:57:48;100725.25;;;8.33;100.00
58761;BME280;44529;47.464;19.014;2022-11-09T06:00:50;100729.34;;;8.25;100.00
58761;BME280;44529;47.464;19.014;2022-11-09T06:03:53;100726.69;;;8.20;100.00
58761;BME280;44529;47.464;19.014;2022-11-09T06:06:55;100728.25;;;8.26;100.00
58761;BME280;44529;47.464;19.014;2022-11-09T06:09:58;100722.13;;;8.21;100.00
58761;BME280;44529;47.464;19.014;2022-11-09T06:13:00;100730.72;;;8.23;100.00
58761;BME280;44529;47.464;19.014;2022-11-09T06:16:04;100727.22;;;8.22;100.00
58761;BME280;44529;47.464;19.014;2022-11-09T06:19:07;100729.09;;;8.22;100.00
58761;BME280;44529;47.464;19.014;2022-11-09T06:22:09;100722.91;;;8.21;100.00
58761;BME280;44529;47.464;19.014;2022-11-09T06:25:11;100727.97;;;8.28;100.00
58761;BME280;44529;47.464;19.014;2022-11-09T06:28:14;100735.81;;;8.24;100.00
58761;BME280;44529;47.464;19.014;2022-11-09T06:31:16;100733.09;;;8.24;100.00
58761;BME280;44529;47.464;19.014;2022-11-09T06:34:18;100739.38;;;8.20;100.00
58761;BME280;44529;47.464;19.014;2022-11-09T06:37:20;100741.25;;;8.19;100.00
58761;BME280;44529;47.464;19.014;2022-11-09T06:40:23;100746.59;;;8.24;100.00
58761;BME280;44529;47.464;19.014;2022-11-09T06:43:26;100736.81;;;8.33;100.00
58761;BME280;44529;47.464;19.014;2022-11-09T06:46:29;100736.34;;;8.26;100.00
58761;BME280;44529;47.464;19.014;2022-11-09T06:49:31;100736.84;;;8.28;100.00
58761;BME280;44529;47.464;19.014;2022-11-09T06:52:33;100741.09;;;8.34;100.00
58761;BME280;44529;47.464;19.014;2022-11-09T06:55:36;100736.72;;;8.44;100.00
58761;BME280;44529;47.464;19.014;2022-11-09T06:58:39;100741.66;;;8.36;100.00
58761;BME280;44529;47.464;19.014;2022-11-09T07:01:41;100734.12;;;8.33;100.00
58761;BME280;44529;47.464;19.014;2022-11-09T07:04:44;100739.00;;;8.31;100.00
58761;BME280;44529;47.464;19.014;2022-11-09T07:07:47;100745.97;;;8.37;100.00
58761;BME280;44529;47.464;19.014;2022-11-09T07:10:50;100750.78;;;8.40;100.00
58761;BME280;44529;47.464;19.014;2022-11-09T07:13:52;100744.59;;;8.35;100.00
58761;BME280;44529;47.464;19.014;2022-11-09T07:16:58;100739.56;;;8.28;100.00
58761;BME280;44529;47.464;19.014;2022-11-09T07:20:01;100745.44;;;8.30;100.00
58761;BME280;44529;47.464;19.014;2022-11-09T07:23:03;100740.06;;;8.35;100.00
58761;BME280;44529;47.464;19.014;2022-11-09T07:26:08;100734.41;;;8.32;100.00
58761;BME280;44529;47.464;19.014;2022-11-09T07:29:22;100736.50;;;8.40;100.00
58761;BME280;44529;47.464;19.014;2022-11-09T07:32:25;100741.09;;;8.39;100.00
58761;BME280;44529;47.464;19.014;2022-11-09T07:35:47;100745.41;;;8.40;100.00
58761;BME280;44529;47.464;19.014;2022-11-09T07:38:49;100740.59;;;8.37;100.00
58761;BME280;44529;47.464;19.014;2022-11-09T07:41:52;100738.41;;;8.34;100.00
58761;BME280;44529;47.464;19.014;2022-11-09T07:45:00;100737.91;;;8.32;100.00
58761;BME280;44529;47.464;19.014;2022-11-09T07:48:05;100735.41;;;8.41;100.00
58761;BME280;44529;47.464;19.014;2022-11-09T07:51:08;100741.28;;;8.48;100.00
58761;BME280;44529;47.464;19.014;2022-11-09T07:54:11;100745.78;;;8.58;100.00
58761;BME280;44529;47.464;19.014;2022-11-09T07:57:13;100742.63;;;8.51;100.00
58761;BME280;44529;47.464;19.014;2022-11-09T08:00:16;100741.47;;;8.57;100.00
58761;BME280;44529;47.464;19.014;2022-11-09T08:03:25;100744.16;;;8.57;100.00
58761;BME280;44529;47.464;19.014;2022-11-09T08:06:27;100741.72;;;8.55;100.00
58761;BME280;44529;47.464;19.014;2022-11-09T08:09:29;100738.16;;;8.65;100.00
58761;BME280;44529;47.464;19.014;2022-11-09T08:12:32;100736.00;;;8.62;100.00
58761;BME280;44529;47.464;19.014;2022-11-09T08:15:39;100739.75;;;8.66;100.00
58761;BME280;44529;47.464;19.014;2022-11-09T08:18:42;100738.00;;;8.75;100.00
58761;BME280;44529;47.464;19.014;2022-11-09T08:21:44;100743.19;;;8.72;100.00
58761;BME280;44529;47.464;19.014;2022-11-09T08:24:47;100726.50;;;8.70;100.00
58761;BME280;44529;47.464;19.014;2022-11-09T08:27:50;100731.38;;;8.67;100.00
58761;BME280;44529;47.464;19.014;2022-11-09T08:30:57;100726.72;;;8.73;100.00
58761;BME280;44529;47.464;19.014;2022-11-09T08:34:00;100722.38;;;8.77;100.00
58761;BME280;44529;47.464;19.014;2022-11-09T08:37:02;100726.16;;;8.76;100.00
58761;BME280;44529;47.464;19.014;2022-11-09T08:40:07;100726.97;;;8.77;100.00
58761;BME280;44529;47.464;19.014;2022-11-09T08:43:10;100728.28;;;8.79;100.00
58761;BME280;44529;47.464;19.014;2022-11-09T08:46:13;100723.97;;;8.78;100.00
58761;BME280;44529;47.464;19.014;2022-11-09T08:49:15;100714.78;;;8.79;100.00
58761;BME280;44529;47.464;19.014;2022-11-09T08:52:18;100714.16;;;8.87;100.00
58761;BME280;44529;47.464;19.014;2022-11-09T08:55:20;100726.62;;;8.83;100.00
58761;BME280;44529;47.464;19.014;2022-11-09T08:58:23;100725.53;;;8.84;100.00
58761;BME280;44529;47.464;19.014;2022-11-09T09:01:25;100724.28;;;8.77;100.00
58761;BME280;44529;47.464;19.014;2022-11-09T09:04:27;100721.28;;;8.78;100.00
58761;BME280;44529;47.464;19.014;2022-11-09T09:07:30;100729.47;;;8.92;100.00
58761;BME280;44529;47.464;19.014;2022-11-09T09:10:33;100727.88;;;8.91;100.00
58761;BME280;44529;47.464;19.014;2022-11-09T09:13:42;100725.53;;;8.84;100.00
58761;BME280;44529;47.464;19.014;2022-11-09T09:16:45;100723.91;;;8.83;100.00
58761;BME280;44529;47.464;19.014;2022-11-09T09:19:47;100725.91;;;8.97;100.00
58761;BME280;44529;47.464;19.014;2022-11-09T09:22:51;100722.94;;;8.98;100.00
58761;BME280;44529;47.464;19.014;2022-11-09T09:25:53;100732.31;;;9.01;100.00
58761;BME280;44529;47.464;19.014;2022-11-09T09:29:00;100730.66;;;9.05;100.00
58761;BME280;44529;47.464;19.014;2022-11-09T09:32:02;100728.91;;;9.14;100.00
58761;BME280;44529;47.464;19.014;2022-11-09T09:35:05;100726.97;;;9.19;100.00
58761;BME280;44529;47.464;19.014;2022-11-09T09:38:07;100721.28;;;9.21;100.00
58761;BME280;44529;47.464;19.014;2022-11-09T09:41:51;100711.37;;;9.16;100.00
58761;BME280;44529;47.464;19.014;2022-11-09T09:45:04;100718.50;;;9.26;100.00
58761;BME280;44529;47.464;19.014;2022-11-09T09:51:23;100707.81;;;9.21;100.00
58761;BME280;44529;47.464;19.014;2022-11-09T09:54:39;100710.34;;;9.31;100.00
58761;BME280;44529;47.464;19.014;2022-11-09T09:57:46;100700.84;;;9.34;100.00
58761;BME280;44529;47.464;19.014;2022-11-09T10:00:55;100699.84;;;9.30;100.00
58761;BME280;44529;47.464;19.014;2022-11-09T10:03:58;100700.84;;;9.34;100.00
58761;BME280;44529;47.464;19.014;2022-11-09T10:07:02;100699.69;;;9.40;100.00
58761;BME280;44529;47.464;19.014;2022-11-09T10:10:38;100689.56;;;9.50;100.00
58761;BME280;44529;47.464;19.014;2022-11-09T10:17:35;100688.25;;;9.48;100.00
58761;BME280;44529;47.464;19.014;2022-11-09T10:21:10;100683.59;;;9.54;100.00
58761;BME280;44529;47.464;19.014;2022-11-09T10:27:33;100676.47;;;9.58;100.00
58761;BME280;44529;47.464;19.014;2022-11-09T10:30:36;100679.19;;;9.58;100.00
58761;BME280;44529;47.464;19.014;2022-11-09T10:33:38;100675.59;;;9.62;100.00
58761;BME280;44529;47.464;19.014;2022-11-09T10:40:32;100676.72;;;9.61;100.00
58761;BME280;44529;47.464;19.014;2022-11-09T10:43:54;100669.03;;;9.68;100.00
58761;BME280;44529;47.464;19.014;2022-11-09T10:47:16;100674.06;;;9.75;100.00
58761;BME280;44529;47.464;19.014;2022-11-09T10:50:45;100665.06;;;9.80;100.00
58761;BME280;44529;47.464;19.014;2022-11-09T10:57:49;100653.97;;;9.81;100.00
58761;BME280;44529;47.464;19.014;2022-11-09T11:01:24;100645.06;;;9.81;100.00
58761;BME280;44529;47.464;19.014;2022-11-09T11:04:45;100644.06;;;9.76;100.00
58761;BME280;44529;47.464;19.014;2022-11-09T11:08:31;100642.75;;;9.74;100.00
58761;BME280;44529;47.464;19.014;2022-11-09T11:12:16;100645.44;;;9.74;100.00
58761;BME280;44529;47.464;19.014;2022-11-09T11:15:40;100646.28;;;9.88;100.00
58761;BME280;44529;47.464;19.014;2022-11-09T11:19:02;100639.28;;;9.87;100.00
58761;BME280;44529;47.464;19.014;2022-11-09T11:22:24;100636.56;;;9.73;100.00
58761;BME280;44529;47.464;19.014;2022-11-09T11:29:46;100638.16;;;9.74;100.00
58761;BME280;44529;47.464;19.014;2022-11-09T11:33:14;100634.03;;;9.77;100.00
58761;BME280;44529;47.464;19.014;2022-11-09T11:37:01;100636.44;;;9.78;100.00
58761;BME280;44529;47.464;19.014;2022-11-09T11:40:36;100637.47;;;9.83;100.00
58761;BME280;44529;47.464;19.014;2022-11-09T11:47:56;100633.87;;;9.87;100.00
58761;BME280;44529;47.464;19.014;2022-11-09T12:10:49;100631.38;;;9.91;100.00
58761;BME280;44529;47.464;19.014;2022-11-09T12:14:42;100623.56;;;9.89;100.00
58761;BME280;44529;47.464;19.014;2022-11-09T12:26:29;100618.25;;;9.84;100.00
58761;BME280;44529;47.464;19.014;2022-11-09T12:30:00;100615.38;;;9.81;100.00
58761;BME280;44529;47.464;19.014;2022-11-09T12:33:57;100621.56;;;9.81;100.00
58761;BME280;44529;47.464;19.014;2022-11-09T12:37:23;100615.28;;;9.86;100.00
58761;BME280;44529;47.464;19.014;2022-11-09T12:41:00;100616.28;;;9.90;100.00
58761;BME280;44529;47.464;19.014;2022-11-09T12:44:31;100616.50;;;9.93;100.00
58761;BME280;44529;47.464;19.014;2022-11-09T12:47:54;100615.47;;;9.89;100.00
58761;BME280;44529;47.464;19.014;2022-11-09T12:51:17;100610.16;;;9.84;100.00
58761;BME280;44529;47.464;19.014;2022-11-09T12:54:41;100604.88;;;9.79;100.00
58761;BME280;44529;47.464;19.014;2022-11-09T12:58:03;100607.03;;;9.77;100.00
58761;BME280;44529;47.464;19.014;2022-11-09T13:05:02;100602.97;;;9.80;100.00
58761;BME280;44529;47.464;19.014;2022-11-09T13:08:26;100602.34;;;9.83;100.00
58761;BME280;44529;47.464;19.014;2022-11-09T13:11:51;100604.88;;;9.93;100.00
58761;BME280;44529;47.464;19.014;2022-11-09T13:15:21;100604.59;;;9.94;100.00
58761;BME280;44529;47.464;19.014;2022-11-09T13:32:31;100594.16;;;9.88;100.00
58761;BME280;44529;47.464;19.014;2022-11-09T13:39:29;100592.75;;;9.90;100.00
58761;BME280;44529;47.464;19.014;2022-11-09T13:46:35;100593.28;;;9.92;100.00
58761;BME280;44529;47.464;19.014;2022-11-09T13:49:57;100597.88;;;9.92;100.00
58761;BME280;44529;47.464;19.014;2022-11-09T13:56:50;100585.66;;;9.94;100.00
58761;BME280;44529;47.464;19.014;2022-11-09T14:00:20;100587.28;;;9.95;100.00
58761;BME280;44529;47.464;19.014;2022-11-09T14:03:49;100583.78;;;9.95;100.00
58761;BME280;44529;47.464;19.014;2022-11-09T14:07:28;100582.16;;;9.94;100.00
58761;BME280;44529;47.464;19.014;2022-11-09T14:11:06;100586.16;;;9.96;100.00
58761;BME280;44529;47.464;19.014;2022-11-09T14:14:49;100578.66;;;9.93;100.00
58761;BME280;44529;47.464;19.014;2022-11-09T14:18:20;100585.56;;;9.86;100.00
58761;BME280;44529;47.464;19.014;2022-11-09T14:21:48;100587.44;;;9.85;100.00
58761;BME280;44529;47.464;19.014;2022-11-09T14:25:15;100584.06;;;9.93;100.00
58761;BME280;44529;47.464;19.014;2022-11-09T14:28:36;100586.47;;;9.95;100.00
58761;BME280;44529;47.464;19.014;2022-11-09T14:32:13;100580.06;;;9.91;100.00
58761;BME280;44529;47.464;19.014;2022-11-09T14:35:36;100584.66;;;9.90;100.00
58761;BME280;44529;47.464;19.014;2022-11-09T14:39:03;100584.25;;;9.83;100.00
58761;BME280;44529;47.464;19.014;2022-11-09T14:42:26;100577.75;;;9.84;100.00
58761;BME280;44529;47.464;19.014;2022-11-09T14:45:48;100575.56;;;9.86;100.00
58761;BME280;44529;47.464;19.014;2022-11-09T14:49:11;100582.03;;;9.85;100.00
58761;BME280;44529;47.464;19.014;2022-11-09T14:52:32;100584.25;;;9.83;100.00
58761;BME280;44529;47.464;19.014;2022-11-09T14:55:56;100595.53;;;9.85;100.00
58761;BME280;44529;47.464;19.014;2022-11-09T14:59:22;100590.03;;;9.76;100.00
58761;BME280;44529;47.464;19.014;2022-11-09T15:02:43;100584.84;;;9.80;100.00
58761;BME280;44529;47.464;19.014;2022-11-09T15:06:10;100588.66;;;9.79;100.00
58761;BME280;44529;47.464;19.014;2022-11-09T15:09:42;100589.34;;;9.85;100.00
58761;BME280;44529;47.464;19.014;2022-11-09T15:13:04;100584.06;;;9.80;100.00
58761;BME280;44529;47.464;19.014;2022-11-09T15:16:26;100590.75;;;9.82;100.00
58761;BME280;44529;47.464;19.014;2022-11-09T15:19:52;100594.16;;;9.88;100.00
58761;BME280;44529;47.464;19.014;2022-11-09T15:23:23;100586.06;;;9.88;100.00
58761;BME280;44529;47.464;19.014;2022-11-09T15:26:55;100593.56;;;9.91;100.00
58761;BME280;44529;47.464;19.014;2022-11-09T15:33:55;100581.56;;;9.97;100.00
58761;BME280;44529;47.464;19.014;2022-11-09T15:37:29;100582.34;;;9.84;100.00
58761;BME280;44529;47.464;19.014;2022-11-09T15:40:49;100594.62;;;9.76;100.00
58761;BME280;44529;47.464;19.014;2022-11-09T15:44:12;100586.03;;;9.74;100.00
58761;BME280;44529;47.464;19.014;2022-11-09T15:47:35;100585.44;;;9.77;100.00
58761;BME280;44529;47.464;19.014;2022-11-09T15:50:56;100581.44;;;9.74;100.00
58761;BME280;44529;47.464;19.014;2022-11-09T15:54:18;100578.66;;;9.80;100.00
58761;BME280;44529;47.464;19.014;2022-11-09T15:57:39;100590.75;;;9.82;100.00
58761;BME280;44529;47.464;19.014;2022-11-09T16:00:59;100587.03;;;9.78;100.00
58761;BME280;44529;47.464;19.014;2022-11-09T16:04:20;100587.62;;;9.75;100.00
58761;BME280;44529;47.464;19.014;2022-11-09T16:07:48;100594.62;;;9.76;100.00
58761;BME280;44529;47.464;19.014;2022-11-09T16:11:09;100578.44;;;9.76;100.00
58761;BME280;44529;47.464;19.014;2022-11-09T16:14:31;100592.25;;;9.74;100.00
58761;BME280;44529;47.464;19.014;2022-11-09T16:17:51;100590.53;;;9.78;100.00
58761;BME280;44529;47.464;19.014;2022-11-09T16:21:14;100598.94;;;9.77;100.00
58761;BME280;44529;47.464;19.014;2022-11-09T16:24:35;100597.44;;;9.71;100.00
58761;BME280;44529;47.464;19.014;2022-11-09T16:27:57;100594.44;;;9.72;100.00
58761;BME280;44529;47.464;19.014;2022-11-09T16:31:18;100589.84;;;9.73;100.00
58761;BME280;44529;47.464;19.014;2022-11-09T16:34:58;100594.94;;;9.74;100.00
58761;BME280;44529;47.464;19.014;2022-11-09T16:38:45;100596.75;;;9.79;100.00
58761;BME280;44529;47.464;19.014;2022-11-09T16:42:08;100591.84;;;9.81;100.00
58761;BME280;44529;47.464;19.014;2022-11-09T16:45:29;100597.66;;;9.88;100.00
58761;BME280;44529;47.464;19.014;2022-11-09T16:48:53;100603.88;;;9.89;100.00
58761;BME280;44529;47.464;19.014;2022-11-09T16:52:14;100597.56;;;9.93;100.00
58761;BME280;44529;47.464;19.014;2022-11-09T16:55:35;100592.09;;;9.98;100.00
58761;BME280;44529;47.464;19.014;2022-11-09T16:58:56;100593.37;;;10.01;100.00
58761;BME280;44529;47.464;19.014;2022-11-09T17:02:16;100598.56;;;9.97;100.00
58761;BME280;44529;47.464;19.014;2022-11-09T17:05:38;100592.87;;;9.99;100.00
58761;BME280;44529;47.464;19.014;2022-11-09T17:08:59;100599.87;;;10.00;100.00
58761;BME280;44529;47.464;19.014;2022-11-09T17:12:20;100600.19;;;9.98;100.00
58761;BME280;44529;47.464;19.014;2022-11-09T17:15:43;100599.19;;;9.94;100.00
58761;BME280;44529;47.464;19.014;2022-11-09T17:19:04;100594.88;;;9.93;100.00
58761;BME280;44529;47.464;19.014;2022-11-09T17:22:25;100597.50;;;9.98;100.00
58761;BME280;44529;47.464;19.014;2022-11-09T17:26:00;100603.37;;;10.00;100.00
58761;BME280;44529;47.464;19.014;2022-11-09T17:29:21;100597.19;;;10.00;100.00
58761;BME280;44529;47.464;19.014;2022-11-09T17:32:43;100603.78;;;9.94;100.00
58761;BME280;44529;47.464;19.014;2022-11-09T17:36:07;100604.59;;;9.94;100.00
58761;BME280;44529;47.464;19.014;2022-11-09T17:39:28;100606.59;;;10.02;100.00
58761;BME280;44529;47.464;19.014;2022-11-09T17:42:49;100600.59;;;10.06;100.00
58761;BME280;44529;47.464;19.014;2022-11-09T17:46:12;100603.88;;;10.02;100.00
58761;BME280;44529;47.464;19.014;2022-11-09T17:49:32;100601.09;;;10.08;100.00
58761;BME280;44529;47.464;19.014;2022-11-09T17:52:53;100600.59;;;10.06;100.00
58761;BME280;44529;47.464;19.014;2022-11-09T17:56:14;100596.50;;;10.08;100.00